createdAt,value
2022-12-06T00:01:14.896Z,122.67
2022-12-06T00:04:04.831Z,116.63
2022-12-06T00:06:52.781Z,119.20
2022-12-06T00:09:40.767Z,120.47
2022-12-06T00:12:29.422Z,123.47
2022-12-06T00:15:17.487Z,112.83
2022-12-06T00:18:06.890Z,114.27
2022-12-06T00:20:54.872Z,111.73
2022-12-06T00:23:45.428Z,112.80
2022-12-06T00:26:35.691Z,115.60
2022-12-06T00:29:24.765Z,114.07
2022-12-06T00:32:19.033Z,114.90
2022-12-06T00:35:09.144Z,111.30
2022-12-06T00:37:57.704Z,101.73
2022-12-06T00:40:45.667Z,107.53
2022-12-06T00:43:34.586Z,103.77
2022-12-06T00:46:24.378Z,96.47
2022-12-06T00:49:12.436Z,91.87
2022-12-06T00:52:01.874Z,100.03
2022-12-06T00:54:49.826Z,102.37
2022-12-06T00:57:37.849Z,100.27
2022-12-06T01:00:25.916Z,111.37
2022-12-06T01:03:13.917Z,97.30
2022-12-06T01:06:04.923Z,100.40
2022-12-06T01:08:55.784Z,108.50
2022-12-06T01:11:43.737Z,104.33
2022-12-06T01:14:31.715Z,112.37
2022-12-06T01:17:19.671Z,105.57
2022-12-06T01:20:08.808Z,112.67
2022-12-06T01:22:56.758Z,100.43
2022-12-06T01:25:52.388Z,109.23
2022-12-06T01:28:40.343Z,116.87
2022-12-06T01:31:35.408Z,117.57
2022-12-06T01:34:25.523Z,113.07
2022-12-06T01:37:13.521Z,110.73
2022-12-06T01:40:01.731Z,115.20
2022-12-06T01:42:51.114Z,126.53
2022-12-06T01:45:46.010Z,118.00
2022-12-06T01:48:35.974Z,106.17
2022-12-06T01:51:24.512Z,111.33
2022-12-06T01:54:16.022Z,111.23
2022-12-06T01:57:08.162Z,123.00
2022-12-06T01:59:57.735Z,113.40
2022-12-06T02:02:46.228Z,118.40
2022-12-06T02:05:40.323Z,117.80
2022-12-06T02:08:28.978Z,110.43
2022-12-06T02:11:16.901Z,110.97
2022-12-06T02:14:08.385Z,112.27
2022-12-06T02:17:11.235Z,112.13
2022-12-06T02:20:04.956Z,99.67
2022-12-06T02:23:24.337Z,111.80
2022-12-06T02:26:21.138Z,110.23
2022-12-06T02:29:45.985Z,103.13
2022-12-06T02:32:40.831Z,105.43
2022-12-06T02:35:34.212Z,103.87
2022-12-06T02:38:30.064Z,100.57
2022-12-06T02:41:23.702Z,107.30
2022-12-06T02:44:20.252Z,98.10
2022-12-06T02:47:12.094Z,103.47
2022-12-06T02:50:04.727Z,99.93
2022-12-06T02:52:55.463Z,104.83
2022-12-06T02:55:44.344Z,98.60
2022-12-06T02:58:35.422Z,97.10
2022-12-06T03:01:27.607Z,114.47
2022-12-06T03:04:46.432Z,107.53
2022-12-06T03:07:42.749Z,103.13
2022-12-06T03:10:41.643Z,106.20
2022-12-06T03:13:35.829Z,109.77
2022-12-06T03:16:29.001Z,101.73
2022-12-06T03:19:20.560Z,105.40
2022-12-06T03:22:12.726Z,108.57
2022-12-06T03:25:03.828Z,115.63
2022-12-06T03:27:54.486Z,106.57
2022-12-06T03:30:46.644Z,111.00
2022-12-06T03:33:38.257Z,109.57
2022-12-06T03:36:28.148Z,108.93
2022-12-06T03:39:20.741Z,100.53
2022-12-06T03:42:10.748Z,106.90
2022-12-06T03:44:59.460Z,108.93
2022-12-06T03:47:54.084Z,106.43
2022-12-06T03:50:46.062Z,107.70
2022-12-06T03:53:34.120Z,113.67
2022-12-06T03:56:23.532Z,112.97
2022-12-06T03:59:12.874Z,111.83
2022-12-06T04:02:00.851Z,109.23
2022-12-06T04:04:49.231Z,115.77
2022-12-06T04:07:37.618Z,110.83
2022-12-06T04:10:25.560Z,115.53
2022-12-06T04:13:19.330Z,107.60
2022-12-06T04:16:30.130Z,113.43
2022-12-06T04:19:17.162Z,108.27
2022-12-06T04:22:22.928Z,106.50
2022-12-06T04:25:10.853Z,102.40
2022-12-06T04:28:16.265Z,110.33
2022-12-06T04:31:22.625Z,105.93
2022-12-06T04:34:29.982Z,106.73
2022-12-06T04:37:35.508Z,108.80
2022-12-06T04:40:23.380Z,100.70
2022-12-06T04:43:29.067Z,105.20
2022-12-06T04:46:17.396Z,111.53
2022-12-06T04:49:05.408Z,106.37
2022-12-06T04:51:55.145Z,105.83
2022-12-06T04:54:43.388Z,111.77
2022-12-06T04:57:31.338Z,110.03
2022-12-06T05:00:19.797Z,103.83
2022-12-06T05:03:07.700Z,107.87
2022-12-06T05:05:55.750Z,109.80
2022-12-06T05:08:44.986Z,111.60
2022-12-06T05:11:32.998Z,110.73
2022-12-06T05:14:21.079Z,92.93
2022-12-06T05:17:09.078Z,108.70
2022-12-06T05:19:57.037Z,105.50
2022-12-06T05:22:45.057Z,101.13
2022-12-06T05:25:34.506Z,103.87
2022-12-06T05:28:22.377Z,108.47
2022-12-06T05:31:10.402Z,107.43
2022-12-06T05:33:58.308Z,114.97
2022-12-06T05:36:46.273Z,116.10
2022-12-06T05:39:34.159Z,102.53
2022-12-06T05:42:23.361Z,112.37
2022-12-06T05:45:12.169Z,103.43
2022-12-06T05:48:00.110Z,109.73
2022-12-06T05:50:48.423Z,104.47
2022-12-06T05:53:36.440Z,107.13
2022-12-06T05:56:24.314Z,111.37
2022-12-06T05:59:13.541Z,116.50
2022-12-06T06:02:01.528Z,112.87
2022-12-06T06:04:49.554Z,124.63
2022-12-06T06:07:37.520Z,118.20
2022-12-06T06:10:25.700Z,112.23
2022-12-06T06:13:13.785Z,111.87
2022-12-06T06:16:03.038Z,111.63
2022-12-06T06:18:50.931Z,109.60
2022-12-06T06:21:38.812Z,118.87
2022-12-06T06:24:26.732Z,110.13
2022-12-06T06:27:14.667Z,120.90
2022-12-06T06:30:02.899Z,109.63
2022-12-06T06:32:52.414Z,109.73
2022-12-06T06:35:40.730Z,107.60
2022-12-06T06:38:28.726Z,115.50
2022-12-06T06:41:16.981Z,111.13
2022-12-06T06:44:05.013Z,120.37
2022-12-06T06:46:52.940Z,111.33
2022-12-06T06:49:42.219Z,118.37
2022-12-06T06:52:30.134Z,112.20
2022-12-06T06:55:20.353Z,107.63
2022-12-06T06:58:08.356Z,103.87
2022-12-06T07:00:57.836Z,110.20
2022-12-06T07:03:42.803Z,107.93
2022-12-06T07:06:12.257Z,121.63
2022-12-06T07:08:41.423Z,132.23
2022-12-06T07:11:09.899Z,130.40
2022-12-06T07:13:38.361Z,128.40
2022-12-06T07:16:08.621Z,125.70
2022-12-06T07:18:36.262Z,115.23
2022-12-06T07:21:06.135Z,123.93
2022-12-06T07:23:36.777Z,122.87
2022-12-06T07:26:07.122Z,130.77
2022-12-06T07:28:36.686Z,125.10
2022-12-06T07:31:11.709Z,116.93
2022-12-06T07:33:39.747Z,120.93
2022-12-06T07:36:13.394Z,116.30
2022-12-06T07:38:43.748Z,112.80
2022-12-06T07:41:31.639Z,123.13
2022-12-06T07:44:17.571Z,119.03
2022-12-06T07:46:45.758Z,117.87
2022-12-06T07:49:13.476Z,121.87
2022-12-06T07:51:41.089Z,128.73
2022-12-06T07:54:10.263Z,128.17
2022-12-06T07:56:38.044Z,123.90
2022-12-06T07:59:06.012Z,135.67
2022-12-06T08:01:33.752Z,127.37
2022-12-06T08:04:02.122Z,124.93
2022-12-06T08:06:31.686Z,121.90
2022-12-06T08:08:59.419Z,125.73
2022-12-06T08:11:29.058Z,119.50
2022-12-06T08:13:56.733Z,117.90
2022-12-06T08:16:24.574Z,121.30
2022-12-06T08:18:52.558Z,126.27
2022-12-06T08:21:20.342Z,127.37
2022-12-06T08:23:48.115Z,115.80
2022-12-06T08:26:18.643Z,124.77
2022-12-06T08:28:47.623Z,115.27
2022-12-06T08:31:17.674Z,122.93
2022-12-06T08:33:45.850Z,107.97
2022-12-06T08:36:15.438Z,118.83
2022-12-06T08:38:43.435Z,118.27
2022-12-06T08:41:32.130Z,119.00
2022-12-06T08:44:02.427Z,110.43
2022-12-06T08:46:31.403Z,113.80
2022-12-06T08:48:59.164Z,116.73
2022-12-06T08:51:27.009Z,112.47
2022-12-06T08:53:55.986Z,115.60
2022-12-06T08:56:24.335Z,118.93
2022-12-06T08:58:53.883Z,116.87
2022-12-06T09:01:25.434Z,135.57
2022-12-06T09:03:53.337Z,120.93
2022-12-06T09:06:22.133Z,126.77
2022-12-06T09:08:50.118Z,123.93
2022-12-06T09:11:18.700Z,126.90
2022-12-06T09:13:46.982Z,128.47
2022-12-06T09:16:16.713Z,122.67
2022-12-06T09:18:46.971Z,127.73
2022-12-06T09:21:17.198Z,121.00
2022-12-06T09:23:45.215Z,138.47
2022-12-06T09:26:13.049Z,126.87
2022-12-06T09:28:42.974Z,140.03
2022-12-06T09:31:11.389Z,125.77
2022-12-06T09:33:39.555Z,121.93
2022-12-06T09:36:14.756Z,123.43
2022-12-06T09:38:44.487Z,135.07
2022-12-06T09:41:26.377Z,121.83
2022-12-06T09:44:07.682Z,115.37
2022-12-06T09:46:48.413Z,114.20
2022-12-06T09:49:33.020Z,124.60
2022-12-06T09:52:15.524Z,128.77
2022-12-06T09:55:00.324Z,124.33
2022-12-06T09:57:37.092Z,126.87
2022-12-06T10:00:11.709Z,122.33
2022-12-06T10:03:02.294Z,118.67
2022-12-06T10:05:38.573Z,119.07
2022-12-06T10:08:23.161Z,112.80
2022-12-06T10:10:57.985Z,113.63
2022-12-06T10:13:41.114Z,132.70
2022-12-06T10:16:16.578Z,115.80
2022-12-06T10:19:08.334Z,116.97
2022-12-06T10:21:46.647Z,123.23
2022-12-06T10:24:29.142Z,122.57
2022-12-06T10:27:04.090Z,126.17
2022-12-06T10:29:43.292Z,118.53
2022-12-06T10:32:18.674Z,129.13
2022-12-06T10:34:54.535Z,116.63
2022-12-06T10:37:35.555Z,125.90
2022-12-06T10:40:14.596Z,121.20
2022-12-06T10:42:46.045Z,125.10
2022-12-06T10:45:41.812Z,133.67
2022-12-06T10:48:17.028Z,123.37
2022-12-06T10:50:47.847Z,117.83
2022-12-06T10:53:17.706Z,127.27
2022-12-06T10:55:50.660Z,119.10
2022-12-06T10:58:27.877Z,119.43
2022-12-06T11:00:59.850Z,130.23
2022-12-06T11:03:33.037Z,121.77
2022-12-06T11:06:08.092Z,131.27
2022-12-06T11:08:39.772Z,125.37
2022-12-06T11:11:16.082Z,126.73
2022-12-06T11:13:47.703Z,126.33
2022-12-06T11:16:19.761Z,123.43
2022-12-06T11:18:49.001Z,128.50
2022-12-06T11:21:26.803Z,126.80
2022-12-06T11:24:00.603Z,134.43
2022-12-06T11:26:36.064Z,120.23
2022-12-06T11:29:06.808Z,124.77
2022-12-06T11:31:38.951Z,125.17
2022-12-06T11:34:15.013Z,129.87
2022-12-06T11:36:43.068Z,135.23
2022-12-06T11:39:13.580Z,122.37
2022-12-06T11:41:46.176Z,135.30
2022-12-06T11:44:18.429Z,134.77
2022-12-06T11:46:46.339Z,147.90
2022-12-06T11:49:32.685Z,122.83
2022-12-06T11:52:05.812Z,126.93
2022-12-06T11:54:39.991Z,142.83
2022-12-06T11:57:22.683Z,142.80
2022-12-06T12:00:16.575Z,140.53
2022-12-06T12:02:45.881Z,135.17
2022-12-06T12:05:21.090Z,144.83
2022-12-06T12:07:51.772Z,145.00
2022-12-06T12:10:29.287Z,148.13
2022-12-06T12:13:12.473Z,154.10
2022-12-06T12:15:48.610Z,147.97
2022-12-06T12:18:23.925Z,155.17
2022-12-06T12:20:51.792Z,148.13
2022-12-06T12:23:22.668Z,167.03
2022-12-06T12:26:01.387Z,147.00
2022-12-06T12:28:32.792Z,150.43
2022-12-06T12:31:01.583Z,154.07
2022-12-06T12:33:30.214Z,156.97
2022-12-06T12:36:15.523Z,147.97
2022-12-06T12:38:45.651Z,147.70
2022-12-06T12:41:31.712Z,160.67
2022-12-06T12:46:56.121Z,147.33
2022-12-06T12:49:28.082Z,162.63
2022-12-06T12:51:56.192Z,144.53
2022-12-06T12:54:29.041Z,143.97
2022-12-06T12:56:57.955Z,158.20
2022-12-06T12:59:29.805Z,166.77
2022-12-06T13:02:02.855Z,153.30
2022-12-06T13:04:37.697Z,167.87
2022-12-06T13:07:08.429Z,161.20
2022-12-06T13:09:46.560Z,168.60
2022-12-06T13:12:20.219Z,172.73
2022-12-06T13:14:54.988Z,163.83
2022-12-06T13:17:27.394Z,169.33
2022-12-06T13:19:55.460Z,165.83
2022-12-06T13:22:27.766Z,166.87
2022-12-06T13:25:01.543Z,162.33
2022-12-06T13:27:33.739Z,171.90
2022-12-06T13:30:07.518Z,167.53
2022-12-06T13:32:41.136Z,169.43
2022-12-06T13:35:21.013Z,182.33
2022-12-06T13:37:54.147Z,168.03
2022-12-06T13:40:46.283Z,163.47
2022-12-06T13:43:56.500Z,163.53
2022-12-06T13:46:29.334Z,161.10
2022-12-06T13:48:58.519Z,168.00
2022-12-06T13:51:46.272Z,181.53
2022-12-06T13:54:30.984Z,156.23
2022-12-06T13:57:00.166Z,158.20
2022-12-06T13:59:40.209Z,177.40
2022-12-06T14:02:50.687Z,171.53
2022-12-06T14:08:33.935Z,148.60
2022-12-06T14:11:25.054Z,167.57
2022-12-06T14:14:02.491Z,153.13
2022-12-06T14:16:35.129Z,150.07
2022-12-06T14:19:12.742Z,146.73
2022-12-06T14:21:44.201Z,171.13
2022-12-06T14:24:26.916Z,158.37
2022-12-06T14:26:54.503Z,149.17
2022-12-06T14:29:23.614Z,172.37
2022-12-06T14:31:52.786Z,166.97
2022-12-06T14:34:27.862Z,157.37
2022-12-06T14:36:59.337Z,163.93
2022-12-06T14:39:29.535Z,170.87
2022-12-06T14:42:16.825Z,166.03
2022-12-06T14:44:48.834Z,146.67
2022-12-06T14:47:18.260Z,160.27
2022-12-06T14:50:08.133Z,151.33
2022-12-06T14:52:37.361Z,146.73
2022-12-06T14:55:17.788Z,170.87
2022-12-06T14:57:47.580Z,160.33
2022-12-06T15:00:25.764Z,167.03
2022-12-06T15:03:28.864Z,163.20
2022-12-06T15:06:18.255Z,159.67
2022-12-06T15:08:54.888Z,149.80
2022-12-06T15:11:44.409Z,159.33
2022-12-06T15:14:17.155Z,167.80
2022-12-06T15:16:46.891Z,158.93
2022-12-06T15:19:17.238Z,169.23
2022-12-06T15:21:45.051Z,153.80
2022-12-06T15:24:18.915Z,169.50
2022-12-06T15:26:46.612Z,159.97
2022-12-06T15:29:14.289Z,167.63
2022-12-06T15:31:44.883Z,168.23
2022-12-06T15:34:25.340Z,152.27
2022-12-06T15:37:15.122Z,157.17
2022-12-06T15:39:43.766Z,155.93
2022-12-06T15:42:14.490Z,153.03
2022-12-06T15:44:47.348Z,154.53
2022-12-06T15:47:17.227Z,149.87
2022-12-06T15:49:45.420Z,147.03
2022-12-06T15:52:17.561Z,159.43
2022-12-06T15:54:46.796Z,155.03
2022-12-06T15:57:14.786Z,156.07
2022-12-06T15:59:42.753Z,152.33
2022-12-06T16:02:15.335Z,143.63
2022-12-06T16:04:43.694Z,142.83
2022-12-06T16:07:13.259Z,156.00
2022-12-06T16:09:41.030Z,143.83
2022-12-06T16:12:11.197Z,158.73
2022-12-06T16:14:38.853Z,151.27
2022-12-06T16:17:06.420Z,142.83
2022-12-06T16:19:48.124Z,147.40
2022-12-06T16:22:15.755Z,145.10
2022-12-06T16:24:42.391Z,149.20
2022-12-06T16:27:11.596Z,155.00
2022-12-06T16:29:39.347Z,149.50
2022-12-06T16:32:07.497Z,152.20
2022-12-06T16:34:35.391Z,149.60
2022-12-06T16:37:04.785Z,149.60
2022-12-06T16:39:34.854Z,146.70
2022-12-06T16:42:04.422Z,162.10
2022-12-06T16:44:50.937Z,137.23
2022-12-06T16:49:48.824Z,142.20
2022-12-06T16:52:17.182Z,142.17
2022-12-06T16:54:45.283Z,147.37
2022-12-06T16:57:13.692Z,138.67
2022-12-06T16:59:43.423Z,141.60
2022-12-06T17:02:26.331Z,149.70
2022-12-06T17:04:54.285Z,137.43
2022-12-06T17:07:22.018Z,143.20
2022-12-06T17:09:49.933Z,155.73
2022-12-06T17:12:17.575Z,137.17
2022-12-06T17:14:47.108Z,140.47
2022-12-06T17:17:16.165Z,139.37
2022-12-06T17:19:44.268Z,133.80
2022-12-06T17:22:13.453Z,128.43
2022-12-06T17:24:41.275Z,148.30
2022-12-06T17:27:09.974Z,142.20
2022-12-06T17:29:38.011Z,139.57
2022-12-06T17:32:07.628Z,138.50
2022-12-06T17:34:35.515Z,135.73
2022-12-06T17:37:03.824Z,137.17
2022-12-06T17:39:31.615Z,134.20
2022-12-06T17:42:17.308Z,138.90
2022-12-06T17:44:44.931Z,123.67
2022-12-06T17:47:13.946Z,132.97
2022-12-06T17:49:41.578Z,138.47
2022-12-06T17:52:09.256Z,130.63
2022-12-06T17:54:36.985Z,133.77
2022-12-06T17:57:04.774Z,131.73
2022-12-06T17:59:34.110Z,127.07
2022-12-06T18:02:18.431Z,137.23
2022-12-06T18:04:48.518Z,141.13
2022-12-06T18:07:17.380Z,126.33
2022-12-06T18:09:45.209Z,127.93
2022-12-06T18:12:14.794Z,139.80
2022-12-06T18:14:42.511Z,141.70
2022-12-06T18:17:10.636Z,129.10
2022-12-06T18:19:40.250Z,128.07
2022-12-06T18:22:09.312Z,125.73
2022-12-06T18:24:37.147Z,143.90
2022-12-06T18:27:05.668Z,143.13
2022-12-06T18:29:33.903Z,134.43
2022-12-06T18:32:01.835Z,128.60
2022-12-06T18:34:29.593Z,129.10
2022-12-06T18:36:57.206Z,127.60
2022-12-06T18:39:26.364Z,120.00
2022-12-06T18:41:54.843Z,126.93
2022-12-06T18:44:22.965Z,127.53
2022-12-06T18:46:50.699Z,136.73
2022-12-06T18:49:18.364Z,129.00
2022-12-06T18:51:46.015Z,119.03
2022-12-06T18:54:14.607Z,110.97
2022-12-06T18:56:43.932Z,111.33
2022-12-06T18:59:12.898Z,122.13
2022-12-06T19:01:41.670Z,121.03
2022-12-06T19:04:14.134Z,132.27
2022-12-06T19:06:41.800Z,124.43
2022-12-06T19:09:11.660Z,126.40
2022-12-06T19:11:40.808Z,127.40
2022-12-06T19:14:10.072Z,118.63
2022-12-06T19:16:39.823Z,125.43
2022-12-06T19:19:15.932Z,111.47
2022-12-06T19:21:45.004Z,125.97
2022-12-06T19:24:13.815Z,117.90
2022-12-06T19:26:41.863Z,115.67
2022-12-06T19:29:10.842Z,124.57
2022-12-06T19:31:38.494Z,124.93
2022-12-06T19:34:06.244Z,127.53
2022-12-06T19:36:34.374Z,124.67
2022-12-06T19:39:05.894Z,114.83
2022-12-06T19:41:55.059Z,108.30
2022-12-06T19:44:23.077Z,114.07
2022-12-06T19:46:51.348Z,114.90
2022-12-06T19:49:22.441Z,119.40
2022-12-06T19:51:51.049Z,115.00
2022-12-06T19:54:20.692Z,130.67
2022-12-06T19:56:49.389Z,121.97
2022-12-06T19:59:17.049Z,114.40
2022-12-06T20:01:47.783Z,122.87
2022-12-06T20:04:18.174Z,118.23
2022-12-06T20:06:46.364Z,128.47
2022-12-06T20:09:14.736Z,131.03
2022-12-06T20:12:03.494Z,127.17
2022-12-06T20:14:35.980Z,123.00
2022-12-06T20:17:07.406Z,119.83
2022-12-06T20:19:35.506Z,126.53
2022-12-06T20:22:03.145Z,120.07
2022-12-06T20:24:31.000Z,123.00
2022-12-06T20:26:58.641Z,116.73
2022-12-06T20:29:27.007Z,122.73
2022-12-06T20:31:57.928Z,130.40
2022-12-06T20:34:28.906Z,129.97
2022-12-06T20:36:57.499Z,126.03
2022-12-06T20:39:28.503Z,129.20
2022-12-06T20:41:56.166Z,113.63
2022-12-06T20:44:24.042Z,121.03
2022-12-06T20:46:53.432Z,112.53
2022-12-06T20:49:21.070Z,120.37
2022-12-06T20:51:53.188Z,117.60
2022-12-06T20:54:21.707Z,115.13
2022-12-06T20:56:51.489Z,117.63
2022-12-06T20:59:19.667Z,103.80
2022-12-06T21:01:47.422Z,111.70
2022-12-06T21:04:35.427Z,100.10
2022-12-06T21:07:25.556Z,103.63
2022-12-06T21:10:13.476Z,103.67
2022-12-06T21:13:05.856Z,106.47
2022-12-06T21:16:02.422Z,103.73
2022-12-06T21:18:55.894Z,103.87
2022-12-06T21:21:46.156Z,109.77
2022-12-06T21:24:35.525Z,117.03
2022-12-06T21:27:23.464Z,105.73
2022-12-06T21:30:12.240Z,110.13
2022-12-06T21:33:00.201Z,103.97
2022-12-06T21:35:48.531Z,105.67
2022-12-06T21:38:36.434Z,106.43
2022-12-06T21:41:25.757Z,106.53
2022-12-06T21:44:13.683Z,114.80
2022-12-06T21:47:01.605Z,114.37
2022-12-06T21:49:49.514Z,110.57
2022-12-06T21:52:37.409Z,112.03
2022-12-06T21:55:25.486Z,115.13
2022-12-06T21:58:14.700Z,107.60
2022-12-06T22:01:07.389Z,107.93
2022-12-06T22:03:58.501Z,105.03
2022-12-06T22:06:46.410Z,104.30
2022-12-06T22:09:34.429Z,108.47
2022-12-06T22:12:22.506Z,106.47
2022-12-06T22:15:12.626Z,94.83
2022-12-06T22:18:00.515Z,94.27
2022-12-06T22:20:57.629Z,86.03
2022-12-06T22:23:46.215Z,88.27
2022-12-06T22:26:34.142Z,81.00
2022-12-06T22:29:22.034Z,89.50
2022-12-06T22:32:11.301Z,86.47
2022-12-06T22:34:59.243Z,85.67
2022-12-06T22:37:47.155Z,85.50
2022-12-06T22:40:35.354Z,83.67
2022-12-06T22:43:24.486Z,76.03
2022-12-06T22:46:15.060Z,87.47
2022-12-06T22:49:05.969Z,89.93
2022-12-06T22:51:53.863Z,77.60
2022-12-06T22:54:41.813Z,90.40
2022-12-06T22:57:29.721Z,88.93
2022-12-06T23:00:18.067Z,87.43
2022-12-06T23:03:06.013Z,84.20
2022-12-06T23:05:59.231Z,95.30
2022-12-06T23:08:47.478Z,90.80
2022-12-06T23:11:37.260Z,86.90
2022-12-06T23:14:25.153Z,102.10
2022-12-06T23:17:13.087Z,98.40
2022-12-06T23:20:01.356Z,97.23
2022-12-06T23:22:50.856Z,92.73
2022-12-06T23:25:38.834Z,85.63
2022-12-06T23:28:26.772Z,83.47
2022-12-06T23:31:16.367Z,86.50
2022-12-06T23:34:07.196Z,92.93
2022-12-06T23:36:55.187Z,79.43
2022-12-06T23:39:44.983Z,96.27
2022-12-06T23:42:32.885Z,87.53
2022-12-06T23:45:20.889Z,95.23
2022-12-06T23:48:08.820Z,91.73
2022-12-06T23:51:01.284Z,91.20
2022-12-06T23:53:52.083Z,89.73
2022-12-06T23:56:43.073Z,91.43
2022-12-06T23:59:30.944Z,92.30
